Time;durP1;ratioP1;P1;durP2;ratioP2;P2;SDS_P1;SDS_P2;PMS_P1;PMS_P2;Temp;Humidity;BMP_temperature;BMP_pressure;BME280_temperature;BME280_humidity;BME280_pressure;Samples;Min_cycle;Max_cycle;Signal;HPM_P1;HPM_P2
2024/01/23 00:01:27;;;;;;;38.83;26.57;;;;;;;6.06;100.00;100477.47;4941534;29;20444;-43
2024/01/23 00:03:55;;;;;;;50.87;26.90;;;;;;;6.07;100.00;100487.06;4941484;29;21356;-43
2024/01/23 00:06:24;;;;;;;42.43;26.40;;;;;;;6.09;100.00;100510.72;4941292;28;20517;-43
2024/01/23 00:08:53;;;;;;;30.43;26.80;;;;;;;6.07;100.00;100516.19;4941525;29;20496;-41
2024/01/23 00:11:21;;;;;;;37.77;27.30;;;;;;;6.08;100.00;100522.31;4944411;29;20491;-41
2024/01/23 00:13:49;;;;;;;38.50;26.57;;;;;;;6.07;100.00;100502.94;4944919;28;20475;-42
2024/01/23 00:16:16;;;;;;;32.20;27.10;;;;;;;6.08;100.00;100504.59;4943678;28;20559;-44
2024/01/23 00:18:44;;;;;;;36.90;25.03;;;;;;;6.09;100.00;100518.66;4946442;28;20503;-42
2024/01/23 00:21:12;;;;;;;43.83;27.50;;;;;;;6.07;100.00;100512.69;4950367;29;20451;-41
2024/01/23 00:23:41;;;;;;;43.90;27.67;;;;;;;6.08;100.00;100519.66;4944348;29;20440;-42
2024/01/23 00:26:09;;;;;;;40.17;25.83;;;;;;;6.08;100.00;100527.59;4950742;28;20463;-41
2024/01/23 00:28:37;;;;;;;45.73;26.97;;;;;;;6.10;100.00;100537.00;4946116;29;20459;-45
2024/01/23 00:31:06;;;;;;;39.73;26.33;;;;;;;6.09;100.00;100539.84;4952118;29;20971;-40
2024/01/23 00:33:33;;;;;;;36.70;27.10;;;;;;;6.10;100.00;100541.47;4944203;28;20440;-41
2024/01/23 00:36:01;;;;;;;33.87;26.27;;;;;;;6.11;100.00;100548.44;4943948;28;20799;-44
2024/01/23 00:38:29;;;;;;;46.30;29.03;;;;;;;6.11;100.00;100554.56;4948266;28;20975;-42
2024/01/23 00:40:58;;;;;;;34.77;27.30;;;;;;;6.11;100.00;100551.91;4941042;29;20479;-41
2024/01/23 00:43:27;;;;;;;51.20;28.23;;;;;;;6.15;100.00;100548.91;4944199;29;20872;-41
2024/01/23 00:45:55;;;;;;;35.43;26.73;;;;;;;6.12;100.00;100553.53;4944332;28;20472;-43
2024/01/23 00:48:23;;;;;;;34.07;25.13;;;;;;;6.15;100.00;100572.75;4943424;29;20460;-43
2024/01/23 00:50:51;;;;;;;30.97;25.70;;;;;;;6.14;100.00;100558.69;4944192;28;20436;-43
2024/01/23 00:53:19;;;;;;;36.17;25.10;;;;;;;6.16;100.00;100567.25;4949238;28;20440;-44
2024/01/23 00:55:47;;;;;;;29.10;25.73;;;;;;;6.13;100.00;100576.38;4943583;28;20928;-42
2024/01/23 00:58:16;;;;;;;29.30;24.23;;;;;;;6.15;100.00;100575.41;4942559;29;21063;-43
2024/01/23 01:00:44;;;;;;;28.07;25.30;;;;;;;6.12;100.00;100582.66;4944230;29;20530;-41
2024/01/23 01:03:12;;;;;;;27.97;24.90;;;;;;;6.11;100.00;100583.69;4942110;28;20444;-44
2024/01/23 01:05:41;;;;;;;31.47;25.23;;;;;;;6.07;100.00;100581.53;4940842;29;20437;-42
2024/01/23 01:08:09;;;;;;;30.60;25.43;;;;;;;6.05;100.00;100594.94;4941064;28;20476;-41
2024/01/23 01:10:38;;;;;;;29.67;26.30;;;;;;;6.09;100.00;100593.59;4950415;28;20470;-42
2024/01/23 01:13:06;;;;;;;31.00;25.83;;;;;;;6.09;100.00;100598.09;4942728;28;20503;-42
2024/01/23 01:15:35;;;;;;;30.43;23.87;;;;;;;6.09;100.00;100598.88;4940692;29;20866;-41
2024/01/23 01:18:03;;;;;;;30.13;24.70;;;;;;;6.05;100.00;100604.72;4939332;28;20500;-42
2024/01/23 01:20:31;;;;;;;32.07;26.70;;;;;;;6.06;100.00;100607.19;4943423;28;20475;-42
2024/01/23 01:22:58;;;;;;;28.53;25.40;;;;;;;6.06;100.00;100603.72;4951459;28;20538;-41
2024/01/23 01:25:26;;;;;;;28.93;25.70;;;;;;;6.05;100.00;100600.25;4939975;28;20483;-41
2024/01/23 01:27:54;;;;;;;38.33;26.60;;;;;;;6.05;100.00;100610.00;4939564;28;20468;-43
2024/01/23 01:30:26;;;;;;;40.33;26.20;;;;;;;6.07;100.00;100623.88;4942647;29;20472;-45
2024/01/23 01:32:56;;;;;;;33.00;27.00;;;;;;;6.09;100.00;100630.66;4943273;29;20447;-41
2024/01/23 01:35:24;;;;;;;33.77;26.10;;;;;;;6.12;100.00;100611.78;4940297;29;20429;-42
2024/01/23 01:37:51;;;;;;;29.67;26.47;;;;;;;6.11;100.00;100611.97;4939332;28;20496;-42
2024/01/23 01:40:19;;;;;;;28.97;25.83;;;;;;;6.08;100.00;100622.91;4941567;29;20481;-42
2024/01/23 01:42:47;;;;;;;29.00;25.57;;;;;;;6.12;100.00;100619.72;4943224;29;20876;-41
2024/01/23 01:45:15;;;;;;;32.23;24.67;;;;;;;6.13;100.00;100620.56;4941162;28;20458;-43
2024/01/23 01:47:43;;;;;;;35.83;26.53;;;;;;;6.13;100.00;100615.25;4944654;28;20479;-41
2024/01/23 01:50:12;;;;;;;32.53;26.50;;;;;;;6.12;100.00;100627.66;4942884;28;20531;-41
2024/01/23 01:52:41;;;;;;;27.57;24.67;;;;;;;6.12;100.00;100619.72;4942216;28;20439;-46
2024/01/23 01:55:10;;;;;;;27.77;25.07;;;;;;;6.10;100.00;100624.38;4945915;28;20443;-41
2024/01/23 01:57:39;;;;;;;40.03;25.00;;;;;;;6.11;100.00;100628.69;4939000;28;20559;-42
2024/01/23 02:00:09;;;;;;;30.40;24.30;;;;;;;6.13;100.00;100624.03;4939636;29;20488;-45
2024/01/23 02:02:40;;;;;;;34.43;24.40;;;;;;;6.13;100.00;100620.56;4942786;28;20475;-41
2024/01/23 02:05:08;;;;;;;32.17;27.67;;;;;;;6.11;100.00;100627.84;4941915;28;20470;-43
2024/01/23 02:07:38;;;;;;;26.00;23.40;;;;;;;6.10;100.00;100631.50;4943252;28;20471;-42
2024/01/23 02:10:07;;;;;;;37.13;27.20;;;;;;;6.09;100.00;100622.72;4942468;28;20437;-44
2024/01/23 02:12:35;;;;;;;28.47;25.43;;;;;;;6.10;100.00;100634.13;4950600;28;20517;-41
2024/01/23 02:15:04;;;;;;;38.60;27.10;;;;;;;6.08;100.00;100625.56;4942822;28;20440;-41
2024/01/23 02:17:32;;;;;;;35.10;26.00;;;;;;;6.08;100.00;100646.72;4938409;28;20475;-40
2024/01/23 02:19:59;;;;;;;37.40;25.73;;;;;;;6.05;100.00;100632.00;4939167;29;20441;-40
2024/01/23 02:22:27;;;;;;;29.30;26.27;;;;;;;6.06;100.00;100643.44;4941783;29;20442;-40
2024/01/23 02:24:56;;;;;;;27.73;24.90;;;;;;;6.04;100.00;100642.75;4942205;28;20809;-40
2024/01/23 02:27:24;;;;;;;36.83;25.80;;;;;;;6.02;100.00;100642.94;4941796;28;20471;-42
2024/01/23 02:29:52;;;;;;;36.50;25.27;;;;;;;6.03;100.00;100641.13;4944309;29;20496;-42
2024/01/23 02:32:20;;;;;;;32.97;25.67;;;;;;;6.02;100.00;100644.75;4940515;29;20771;-42
2024/01/23 02:34:48;;;;;;;31.93;24.23;;;;;;;6.05;100.00;100637.31;4950533;28;20440;-41
2024/01/23 02:37:16;;;;;;;31.13;24.77;;;;;;;6.07;100.00;100643.25;4942318;28;20479;-41
2024/01/23 02:39:44;;;;;;;36.63;24.60;;;;;;;6.10;100.00;100650.03;4941096;29;20966;-41
2024/01/23 02:42:13;;;;;;;28.53;24.80;;;;;;;6.10;100.00;100634.97;4941461;29;20516;-41
2024/01/23 02:44:45;;;;;;;40.90;23.93;;;;;;;6.13;100.00;100647.03;4944238;28;20446;-40
2024/01/23 02:47:13;;;;;;;26.63;24.00;;;;;;;6.15;100.00;100641.59;4943306;28;20470;-47
2024/01/23 02:49:41;;;;;;;28.27;25.43;;;;;;;6.16;100.00;100649.34;4946491;29;20475;-43
2024/01/23 02:52:09;;;;;;;28.13;25.00;;;;;;;6.17;100.00;100639.59;4944660;28;20449;-43
2024/01/23 02:54:37;;;;;;;32.27;27.03;;;;;;;6.18;100.00;100635.94;4949051;29;20435;-42
2024/01/23 02:57:05;;;;;;;38.77;25.40;;;;;;;6.18;100.00;100644.72;4944859;28;20460;-41
2024/01/23 02:59:34;;;;;;;41.60;24.90;;;;;;;6.18;100.00;100641.25;4949333;28;20464;-42
2024/01/23 03:02:02;;;;;;;45.70;25.40;;;;;;;6.18;100.00;100652.66;4948752;29;20479;-41
2024/01/23 03:04:30;;;;;;;42.97;26.40;;;;;;;6.15;100.00;100660.13;4944751;29;20539;-42
2024/01/23 03:06:57;;;;;;;40.73;26.53;;;;;;;6.17;100.00;100669.53;4945926;28;20544;-41
2024/01/23 03:09:25;;;;;;;28.67;25.17;;;;;;;6.15;100.00;100668.06;4940135;29;20460;-42
2024/01/23 03:11:54;;;;;;;32.13;25.30;;;;;;;6.13;100.00;100684.94;4940134;29;20886;-44
2024/01/23 03:14:22;;;;;;;30.37;25.30;;;;;;;6.12;100.00;100683.28;4943292;29;20441;-43
2024/01/23 03:16:51;;;;;;;46.47;26.57;;;;;;;6.11;100.00;100679.00;4944446;28;20464;-42
2024/01/23 03:19:19;;;;;;;33.67;24.57;;;;;;;6.16;100.00;100680.28;4942509;28;20494;-42
2024/01/23 03:21:47;;;;;;;35.33;25.47;;;;;;;6.13;100.00;100692.88;4941152;29;20486;-41
2024/01/23 03:24:15;;;;;;;32.60;24.90;;;;;;;6.16;100.00;100696.16;4942043;29;20472;-41
2024/01/23 03:26:42;;;;;;;35.43;25.40;;;;;;;6.15;100.00;100687.44;4943365;28;20572;-41
2024/01/23 03:29:10;;;;;;;48.30;26.50;;;;;;;6.11;100.00;100697.53;4944480;28;20509;-41
2024/01/23 03:31:38;;;;;;;40.80;25.80;;;;;;;6.15;100.00;100703.31;4941264;29;20471;-41
2024/01/23 03:34:07;;;;;;;37.13;25.53;;;;;;;6.13;100.00;100714.06;4944022;29;20480;-41
2024/01/23 03:36:35;;;;;;;34.43;25.97;;;;;;;6.11;100.00;100708.13;4944777;28;20475;-41
2024/01/23 03:39:03;;;;;;;33.33;26.30;;;;;;;6.10;100.00;100705.63;4944887;29;20464;-42
2024/01/23 03:41:31;;;;;;;41.03;27.13;;;;;;;6.13;100.00;100713.22;4947240;29;20986;-41
2024/01/23 03:43:59;;;;;;;37.53;25.90;;;;;;;6.10;100.00;100706.44;4948235;29;20479;-41
2024/01/23 03:46:27;;;;;;;36.87;26.37;;;;;;;6.08;100.00;100713.75;4945484;28;20463;-41
2024/01/23 03:48:54;;;;;;;38.13;25.93;;;;;;;6.07;100.00;100706.78;4944644;29;20523;-42
2024/01/23 03:51:24;;;;;;;38.07;25.67;;;;;;;6.00;100.00;100716.38;4945897;29;20533;-41
2024/01/23 03:53:52;;;;;;;36.90;25.63;;;;;;;5.99;100.00;100727.16;4944641;28;20448;-41
2024/01/23 03:56:20;;;;;;;35.30;25.70;;;;;;;5.96;100.00;100743.38;4946837;28;21162;-41
2024/01/23 03:58:48;;;;;;;30.20;24.03;;;;;;;5.91;100.00;100735.09;4948026;28;20463;-42
2024/01/23 04:01:16;;;;;;;34.47;24.20;;;;;;;5.79;100.00;100742.53;4945523;29;21079;-43
2024/01/23 04:03:44;;;;;;;28.33;23.47;;;;;;;5.79;100.00;100753.13;4944358;29;20451;-42
2024/01/23 04:06:11;;;;;;;28.13;25.53;;;;;;;5.70;100.00;100754.09;4943838;28;20523;-41
2024/01/23 04:08:41;;;;;;;33.67;24.30;;;;;;;5.68;100.00;100756.06;4947822;28;20495;-41
2024/01/23 04:11:09;;;;;;;44.33;26.13;;;;;;;5.67;100.00;100764.19;4947596;29;20518;-43
2024/01/23 04:13:37;;;;;;;31.90;26.30;;;;;;;5.65;100.00;100764.31;4951220;29;20441;-41
2024/01/23 04:16:06;;;;;;;28.07;24.37;;;;;;;5.64;100.00;100767.16;4943787;28;20921;-41
2024/01/23 04:18:34;;;;;;;39.63;26.23;;;;;;;5.65;100.00;100763.50;4954750;29;21192;-41
2024/01/23 04:21:07;;;;;;;34.80;26.40;;;;;;;5.66;100.00;100768.63;4946293;28;20448;-40
2024/01/23 04:23:35;;;;;;;37.60;23.80;;;;;;;5.62;100.00;100764.66;4943993;28;20472;-41
2024/01/23 04:26:06;;;;;;;40.73;25.13;;;;;;;5.59;100.00;100771.09;4950176;28;20446;-44
2024/01/23 04:28:35;;;;;;;39.10;24.30;;;;;;;5.59;100.00;100773.75;4946853;29;20456;-41
2024/01/23 04:31:03;;;;;;;33.20;25.37;;;;;;;5.57;100.00;100766.97;4946521;28;20451;-43
2024/01/23 04:33:31;;;;;;;35.63;25.30;;;;;;;5.55;100.00;100780.34;4944135;28;20447;-43
2024/01/23 04:35:59;;;;;;;39.60;25.20;;;;;;;5.60;100.00;100779.88;4949728;28;20440;-43
2024/01/23 04:38:27;;;;;;;32.93;25.83;;;;;;;5.61;100.00;100789.47;4952973;28;20468;-44
2024/01/23 04:40:55;;;;;;;34.77;25.27;;;;;;;5.62;100.00;100790.28;4943873;29;20476;-41
2024/01/23 04:43:24;;;;;;;32.27;25.40;;;;;;;5.61;100.00;100788.66;4944329;29;20480;-41
2024/01/23 04:45:51;;;;;;;46.90;25.03;;;;;;;5.60;100.00;100790.47;4946453;28;20439;-42
2024/01/23 04:48:19;;;;;;;43.97;24.80;;;;;;;5.63;100.00;100787.47;4945504;28;20495;-42
2024/01/23 04:50:47;;;;;;;54.23;28.50;;;;;;;5.62;100.00;100785.81;4943667;29;20441;-45
2024/01/23 04:53:15;;;;;;;47.43;26.40;;;;;;;5.64;100.00;100801.53;4948489;29;20440;-41
2024/01/23 04:55:43;;;;;;;45.00;28.40;;;;;;;5.63;100.00;100794.59;4954512;28;20508;-42
2024/01/23 04:58:10;;;;;;;44.27;26.17;;;;;;;5.66;100.00;100800.38;4953420;28;20464;-41
2024/01/23 05:00:40;;;;;;;42.17;24.50;;;;;;;5.64;100.00;100805.03;4954575;29;20436;-43
2024/01/23 05:03:11;;;;;;;37.13;26.30;;;;;;;5.71;100.00;100794.59;4954157;29;20475;-41
2024/01/23 05:05:38;;;;;;;53.10;27.13;;;;;;;5.72;100.00;100785.66;4933964;29;20959;-43
2024/01/23 05:08:07;;;;;;;39.27;25.97;;;;;;;5.72;100.00;100791.78;4947791;28;20559;-42
2024/01/23 05:10:35;;;;;;;42.90;24.47;;;;;;;5.78;100.00;100801.72;4952065;29;20436;-42
2024/01/23 05:13:03;;;;;;;51.33;27.07;;;;;;;5.81;100.00;100782.88;4951811;29;20468;-42
2024/01/23 05:15:31;;;;;;;48.13;28.27;;;;;;;5.84;100.00;100781.72;4952864;29;20524;-41
2024/01/23 05:18:06;;;;;;;43.83;28.80;;;;;;;5.84;100.00;100793.13;4951857;28;20523;-41
2024/01/23 05:20:35;;;;;;;40.47;26.50;;;;;;;5.86;100.00;100791.16;4952660;29;20463;-46
2024/01/23 05:23:04;;;;;;;42.60;27.70;;;;;;;5.92;100.00;100813.50;4952562;28;20475;-42
2024/01/23 05:25:32;;;;;;;48.43;28.57;;;;;;;5.93;100.00;100791.34;4941976;29;20969;-42
2024/01/23 05:28:00;;;;;;;47.87;27.90;;;;;;;5.94;100.00;100828.22;4932596;28;20475;-43
2024/01/23 05:30:28;;;;;;;38.53;26.27;;;;;;;5.96;100.00;100823.59;4942494;29;20880;-41
2024/01/23 05:32:56;;;;;;;40.60;28.27;;;;;;;5.97;100.00;100821.78;4938183;29;20634;-41
2024/01/23 05:35:26;;;;;;;32.83;26.30;;;;;;;5.96;100.00;100831.56;4932939;29;20444;-46
2024/01/23 05:37:53;;;;;;;33.80;25.87;;;;;;;5.96;100.00;100831.56;4945143;28;20872;-39
2024/01/23 05:40:21;;;;;;;40.60;25.10;;;;;;;5.94;100.00;100846.75;4951335;29;20931;-40
2024/01/23 05:42:48;;;;;;;34.37;23.80;;;;;;;5.92;100.00;100851.38;4946918;29;20478;-44
2024/01/23 05:45:16;;;;;;;32.73;25.00;;;;;;;5.91;100.00;100856.84;4932485;29;20433;-42
2024/01/23 05:47:44;;;;;;;37.70;25.17;;;;;;;5.90;100.00;100871.91;4930595;28;21006;-43
2024/01/23 05:50:12;;;;;;;50.00;28.80;;;;;;;5.94;100.00;100875.84;4947634;29;20439;-43
2024/01/23 05:52:41;;;;;;;44.77;27.37;;;;;;;5.96;100.00;100870.41;4932415;28;20794;-42
2024/01/23 05:55:09;;;;;;;46.83;26.30;;;;;;;5.99;100.00;100892.09;4946539;28;20935;-41
2024/01/23 05:57:37;;;;;;;43.83;26.00;;;;;;;5.99;100.00;100894.75;4950573;28;21034;-41
2024/01/23 06:00:09;;;;;;;34.40;25.93;;;;;;;6.01;100.00;100899.88;4943216;29;20460;-46
2024/01/23 06:02:38;;;;;;;37.83;25.73;;;;;;;5.99;100.00;100893.91;4950607;29;20482;-42
2024/01/23 06:05:08;;;;;;;38.77;26.23;;;;;;;5.98;100.00;100910.78;4951484;29;20432;-41
2024/01/23 06:07:41;;;;;;;32.03;23.73;;;;;;;5.94;100.00;100904.19;4950519;28;20463;-43
2024/01/23 06:10:11;;;;;;;30.97;25.93;;;;;;;5.94;100.00;100928.81;4950639;29;20814;-42
2024/01/23 06:12:39;;;;;;;37.93;27.20;;;;;;;5.94;100.00;100933.28;4931653;29;21021;-42
2024/01/23 06:15:08;;;;;;;40.50;27.20;;;;;;;5.96;100.00;100923.34;4931740;29;20849;-44
2024/01/23 06:17:36;;;;;;;40.83;28.50;;;;;;;5.96;100.00;100942.72;4933464;28;20465;-42
2024/01/23 06:20:07;;;;;;;49.03;27.13;;;;;;;5.96;100.00;100937.44;4950980;29;20515;-42
2024/01/23 06:22:35;;;;;;;38.33;25.77;;;;;;;5.97;100.00;100960.25;4950315;29;21327;-42
2024/01/23 06:25:04;;;;;;;49.60;29.03;;;;;;;5.96;100.00;100958.59;4944426;29;20444;-43
2024/01/23 06:27:33;;;;;;;52.03;28.40;;;;;;;5.94;100.00;100952.63;4930751;28;20844;-42
2024/01/23 06:30:01;;;;;;;44.13;27.63;;;;;;;5.88;100.00;100945.34;4931830;29;20449;-43
2024/01/23 06:32:29;;;;;;;48.73;28.43;;;;;;;5.88;100.00;100966.53;4940385;29;20843;-41
2024/01/23 06:34:57;;;;;;;50.73;30.07;;;;;;;5.83;100.00;100974.06;4950374;29;20539;-44
2024/01/23 06:37:24;;;;;;;32.83;27.00;;;;;;;5.82;100.00;100979.53;4949980;28;20472;-41
2024/01/23 06:39:52;;;;;;;45.23;28.70;;;;;;;5.80;100.00;100994.72;4950586;29;20527;-42
2024/01/23 06:42:23;;;;;;;42.13;29.47;;;;;;;5.77;100.00;100995.88;4941769;29;20758;-44
2024/01/23 06:44:53;;;;;;;39.00;27.67;;;;;;;5.76;100.00;100996.06;4970462;23;20509;-35
2024/01/23 06:47:21;;;;;;;46.40;27.87;;;;;;;5.71;100.00;100996.50;4935880;28;20471;-34
2024/01/23 06:49:49;;;;;;;50.73;29.03;;;;;;;5.69;100.00;101001.16;4952774;28;20973;-33
2024/01/23 06:52:17;;;;;;;44.90;28.37;;;;;;;5.71;100.00;101014.19;4943412;28;20502;-34
2024/01/23 06:54:47;;;;;;;46.27;26.60;;;;;;;5.67;100.00;101016.38;4938407;29;20528;-33
2024/01/23 06:57:15;;;;;;;58.47;29.43;;;;;;;5.66;100.00;101017.34;4940077;28;20832;-34
2024/01/23 06:59:43;;;;;;;37.33;27.40;;;;;;;5.64;100.00;101006.09;4943277;29;20439;-34
2024/01/23 07:02:12;;;;;;;48.50;27.77;;;;;;;5.62;100.00;101037.16;4944719;28;20794;-34
2024/01/23 07:04:41;;;;;;;44.40;27.70;;;;;;;5.56;100.00;101040.41;4937072;29;20484;-34
2024/01/23 07:07:09;;;;;;;35.03;28.03;;;;;;;5.51;100.00;101051.50;4945718;28;20472;-35
2024/01/23 07:09:37;;;;;;;56.80;30.13;;;;;;;5.53;100.00;101059.25;4946160;29;20445;-34
2024/01/23 07:12:06;;;;;;;65.87;27.80;;;;;;;5.51;100.00;101083.22;4948170;28;20906;-34
2024/01/23 07:14:34;;;;;;;47.13;26.93;;;;;;;5.50;100.00;101086.84;4955470;28;20834;-33
2024/01/23 07:17:02;;;;;;;55.07;29.33;;;;;;;5.51;100.00;101096.47;4951357;28;20518;-34
2024/01/23 07:19:31;;;;;;;55.87;31.57;;;;;;;5.52;100.00;101115.81;4947647;28;20444;-34
2024/01/23 07:21:59;;;;;;;41.97;28.70;;;;;;;5.52;100.00;101110.53;4937571;29;20444;-33
2024/01/23 07:24:27;;;;;;;38.93;27.00;;;;;;;5.50;100.00;101126.53;4945015;29;20563;-34
2024/01/23 07:26:55;;;;;;;47.73;28.23;;;;;;;5.48;100.00;101140.91;4936192;28;20515;-34
2024/01/23 07:29:23;;;;;;;42.20;28.10;;;;;;;5.49;100.00;101143.41;4952515;29;20531;-34
2024/01/23 07:31:52;;;;;;;32.47;27.47;;;;;;;5.47;100.00;101153.28;4943558;28;20473;-34
2024/01/23 07:34:20;;;;;;;50.00;27.30;;;;;;;5.53;100.00;101171.19;4944917;29;20451;-34
2024/01/23 07:36:49;;;;;;;42.30;27.20;;;;;;;5.53;100.00;101170.34;4944303;28;20531;-34
2024/01/23 07:39:17;;;;;;;40.67;25.63;;;;;;;5.52;100.00;101179.28;4935010;29;20443;-34
2024/01/23 07:41:45;;;;;;;32.13;25.17;;;;;;;5.56;100.00;101188.56;4951395;29;20678;-34
2024/01/23 07:44:12;;;;;;;29.53;25.37;;;;;;;5.58;100.00;101192.72;4936283;29;20484;-37
2024/01/23 07:46:40;;;;;;;34.20;26.07;;;;;;;5.59;100.00;101190.91;4939142;28;20492;-33
2024/01/23 07:49:08;;;;;;;36.97;26.13;;;;;;;5.57;100.00;101200.81;4944468;28;20448;-34
2024/01/23 07:51:46;;;;;;;40.90;26.30;;;;;;;5.59;100.00;101215.56;4937882;29;20433;-34
2024/01/23 07:54:16;;;;;;;37.93;24.60;;;;;;;5.66;100.00;101231.66;4937740;29;20456;-34
2024/01/23 07:56:44;;;;;;;30.43;23.87;;;;;;;5.67;100.00;101230.69;4946005;28;20807;-36
2024/01/23 07:59:12;;;;;;;30.17;25.07;;;;;;;5.77;100.00;101252.56;4955128;28;20519;-33
2024/01/23 08:01:39;;;;;;;26.37;24.07;;;;;;;5.80;100.00;101260.22;4951675;28;20610;-34
2024/01/23 08:04:07;;;;;;;32.03;24.60;;;;;;;5.86;100.00;101253.50;4948162;28;20478;-35
2024/01/23 08:06:35;;;;;;;32.27;24.93;;;;;;;5.85;100.00;101251.81;4945678;28;20571;-34
2024/01/23 08:09:04;;;;;;;36.77;26.17;;;;;;;5.86;100.00;101259.63;4947586;28;20535;-34
2024/01/23 08:11:34;;;;;;;36.73;25.97;;;;;;;5.80;100.00;101268.16;4946664;28;20513;-37
2024/01/23 08:14:01;;;;;;;33.17;25.97;;;;;;;5.82;100.00;101294.47;4950835;28;20973;-34
2024/01/23 08:16:29;;;;;;;29.60;25.30;;;;;;;5.85;100.00;101310.06;4944280;28;20897;-34
2024/01/23 08:19:01;;;;;;;38.00;25.67;;;;;;;5.93;100.00;101292.44;4949510;28;20460;-34
2024/01/23 08:21:30;;;;;;;28.33;24.70;;;;;;;5.93;100.00;101318.91;4951696;29;20439;-34
2024/01/23 08:23:57;;;;;;;35.80;27.57;;;;;;;5.94;100.00;101320.56;4954919;28;20475;-35
2024/01/23 08:26:25;;;;;;;42.17;26.43;;;;;;;5.98;100.00;101329.88;4955458;28;20882;-35
2024/01/23 08:29:00;;;;;;;37.30;27.07;;;;;;;5.99;100.00;101334.19;4943810;28;20558;-34
2024/01/23 08:31:29;;;;;;;49.27;27.40;;;;;;;5.98;100.00;101336.97;4936610;29;20528;-34
2024/01/23 08:33:57;;;;;;;45.83;27.70;;;;;;;6.01;100.00;101353.41;4936609;29;20452;-34
2024/01/23 08:36:25;;;;;;;35.63;26.20;;;;;;;6.01;100.00;101350.75;4935632;28;20539;-34
2024/01/23 08:38:53;;;;;;;49.40;26.50;;;;;;;6.08;100.00;101369.50;4947704;29;20436;-34
2024/01/23 08:41:21;;;;;;;49.93;28.27;;;;;;;6.08;100.00;101370.34;4947796;28;20445;-34
2024/01/23 08:43:49;;;;;;;37.33;27.40;;;;;;;6.18;100.00;101382.69;4955249;28;20574;-34
2024/01/23 08:46:21;;;;;;;41.47;26.50;;;;;;;6.27;100.00;101400.31;4939909;28;20456;-34
2024/01/23 08:48:50;;;;;;;45.00;26.50;;;;;;;6.44;100.00;101402.09;4946676;29;20486;-34
2024/01/23 08:51:18;;;;;;;45.47;27.73;;;;;;;6.50;100.00;101418.22;4953602;28;20472;-34
2024/01/23 08:53:47;;;;;;;47.53;26.40;;;;;;;6.57;100.00;101411.28;4953353;28;20455;-37
2024/01/23 08:56:16;;;;;;;47.43;28.97;;;;;;;6.61;100.00;101435.69;4947077;28;20463;-34
2024/01/23 08:58:44;;;;;;;44.60;29.27;;;;;;;6.67;100.00;101430.59;4935361;29;20488;-35
2024/01/23 09:01:12;;;;;;;50.97;28.40;;;;;;;6.71;100.00;101443.53;4942069;29;20464;-37
2024/01/23 09:03:41;;;;;;;59.57;26.23;;;;;;;6.81;100.00;101439.78;4934927;29;20515;-36
2024/01/23 09:06:10;;;;;;;43.50;26.63;;;;;;;6.89;100.00;101445.16;4945491;28;20457;-35
2024/01/23 09:08:38;;;;;;;55.23;29.00;;;;;;;6.85;100.00;101461.53;4944276;28;20439;-34
2024/01/23 09:11:06;;;;;;;45.10;30.60;;;;;;;6.81;100.00;101468.16;4948163;28;20552;-34
2024/01/23 09:13:33;;;;;;;39.97;27.93;;;;;;;6.89;100.00;101461.06;4942203;28;20809;-35
2024/01/23 09:16:01;;;;;;;50.93;30.13;;;;;;;6.85;100.00;101457.06;4940775;28;20436;-34
2024/01/23 09:18:29;;;;;;;58.70;31.60;;;;;;;6.79;100.00;101475.41;4953479;28;20471;-34
2024/01/23 09:21:02;;;;;;;62.40;30.97;;;;;;;6.81;100.00;101473.44;4945209;28;20468;-34
2024/01/23 09:23:30;;;;;;;45.20;29.43;;;;;;;6.78;100.00;101479.88;4944946;28;21042;-38
2024/01/23 09:25:58;;;;;;;52.87;30.30;;;;;;;6.80;100.00;101488.50;4952045;28;20482;-34
2024/01/23 09:28:26;;;;;;;54.37;29.30;;;;;;;6.82;100.00;101497.13;4945398;28;20463;-34
2024/01/23 09:30:54;;;;;;;58.23;31.73;;;;;;;6.83;100.00;101497.97;4933810;29;20529;-34
2024/01/23 09:33:22;;;;;;;63.67;31.00;;;;;;;6.92;100.00;101511.16;4934894;29;20539;-36
2024/01/23 09:35:52;;;;;;;52.53;29.47;;;;;;;6.91;100.00;101504.16;4935775;28;20491;-34
2024/01/23 09:38:21;;;;;;;77.73;30.43;;;;;;;6.98;100.00;101515.84;4935564;29;20441;-35
2024/01/23 09:40:51;;;;;;;57.87;29.40;;;;;;;7.04;100.00;101514.38;4945349;29;20471;-35
2024/01/23 09:43:21;;;;;;;51.40;28.90;;;;;;;7.05;100.00;101518.69;4952016;28;20523;-38
2024/01/23 09:45:51;;;;;;;45.53;28.47;;;;;;;7.08;100.00;101526.31;4941614;28;20483;-36
2024/01/23 09:48:20;;;;;;;51.10;29.37;;;;;;;7.11;100.00;101526.00;4933979;29;20433;-38
2024/01/23 09:50:54;;;;;;;59.90;29.23;;;;;;;7.22;100.00;101521.31;4936367;28;20437;-38
2024/01/23 09:53:25;;;;;;;51.87;30.13;;;;;;;7.20;100.00;101546.31;4940443;28;20455;-36
2024/01/23 09:55:53;;;;;;;40.87;28.50;;;;;;;7.30;100.00;101548.88;4931623;28;20500;-38
2024/01/23 09:58:22;;;;;;;46.53;28.87;;;;;;;7.42;100.00;101537.84;4940376;29;20439;-36
2024/01/23 10:00:50;;;;;;;53.43;30.07;;;;;;;7.31;100.00;101554.03;4952557;29;20443;-35
2024/01/23 10:03:19;;;;;;;49.10;29.20;;;;;;;7.35;100.00;101560.66;4938335;28;20440;-35
2024/01/23 10:05:47;;;;;;;62.87;29.33;;;;;;;7.34;100.00;101567.00;4950921;28;21026;-37
2024/01/23 10:08:15;;;;;;;47.03;30.47;;;;;;;7.33;100.00;101578.59;4951951;28;20436;-37
2024/01/23 10:10:44;;;;;;;50.50;30.40;;;;;;;7.42;100.00;101587.44;4938991;28;20448;-36
2024/01/23 10:13:13;;;;;;;62.17;29.90;;;;;;;7.31;100.00;101593.84;4938194;28;20880;-35
2024/01/23 10:15:40;;;;;;;44.17;29.47;;;;;;;7.31;100.00;101585.03;4938915;29;20945;-35
2024/01/23 10:18:08;;;;;;;50.00;29.30;;;;;;;7.33;100.00;101588.34;4944227;28;20471;-36
2024/01/23 10:20:39;;;;;;;44.30;27.43;;;;;;;7.36;100.00;101582.75;4951670;28;21035;-36
2024/01/23 10:23:07;;;;;;;49.97;28.90;;;;;;;7.29;100.00;101585.16;4952343;28;20856;-36
2024/01/23 10:25:35;;;;;;;40.33;27.57;;;;;;;7.29;100.00;101577.22;4954984;28;20487;-35
2024/01/23 10:28:08;;;;;;;40.07;28.23;;;;;;;7.31;100.00;101577.06;4946209;28;20468;-35
2024/01/23 10:30:37;;;;;;;41.00;28.53;;;;;;;7.34;100.00;101579.41;4955242;28;20487;-35
2024/01/23 10:33:06;;;;;;;48.97;28.70;;;;;;;7.38;100.00;101586.91;4955190;28;20440;-36
2024/01/23 10:35:35;;;;;;;42.57;28.33;;;;;;;7.54;100.00;101596.78;4952898;28;20446;-37
2024/01/23 10:38:05;;;;;;;41.80;29.03;;;;;;;7.57;100.00;101599.97;4950435;28;20472;-36
2024/01/23 10:40:33;;;;;;;52.77;27.63;;;;;;;7.62;100.00;101604.81;4935622;29;20448;-37
2024/01/23 10:43:02;;;;;;;40.97;27.70;;;;;;;7.70;100.00;101597.75;4935341;29;20991;-35
2024/01/23 10:45:31;;;;;;;50.40;29.67;;;;;;;7.79;100.00;101609.25;4938448;29;20976;-36
2024/01/23 10:48:01;;;;;;;61.33;29.47;;;;;;;7.88;100.00;101602.16;4949526;28;20879;-35
2024/01/23 10:50:30;;;;;;;56.37;28.50;;;;;;;8.01;100.00;101591.91;4955167;28;20538;-38
2024/01/23 10:53:03;;;;;;;40.37;28.00;;;;;;;7.98;100.00;101579.78;4954125;28;20435;-36
2024/01/23 10:55:39;;;;;;;43.37;28.80;;;;;;;8.07;100.00;101593.94;4956739;28;20435;-35
2024/01/23 10:58:13;;;;;;;53.70;30.30;;;;;;;8.13;100.00;101595.94;4955195;28;21050;-36
2024/01/23 11:00:44;;;;;;;44.57;29.70;;;;;;;8.14;100.00;101598.47;4955072;28;20443;-37
2024/01/23 11:03:13;;;;;;;44.43;28.67;;;;;;;8.14;100.00;101581.69;4945711;28;20532;-38
2024/01/23 11:05:49;;;;;;;46.57;29.40;;;;;;;8.08;100.00;101585.81;4944662;28;20548;-33
2024/01/23 11:08:20;;;;;;;40.07;28.30;;;;;;;8.19;100.00;101598.78;4934588;29;20448;-37
2024/01/23 11:10:55;;;;;;;41.77;29.67;;;;;;;8.20;100.00;101589.00;4942664;29;20439;-35
2024/01/23 11:13:29;;;;;;;44.73;28.70;;;;;;;8.10;100.00;101591.78;4942354;29;20489;-39
2024/01/23 11:15:58;;;;;;;42.63;27.17;;;;;;;8.06;100.00;101592.28;4947704;28;20938;-36